AirNav   Air Wisconsin pilot careers
 
 1613 users online  

D42 Springfield Municipal Airport
Springfield, Minnesota, USA

GOING TO SPRINGFIELD?


FAA INFORMATION EFFECTIVE 13 SEPTEMBER 2018

Location

FAA Identifier: D42
Lat/Long: 44-13-51.8000N / 094-59-56.1000W
44-13.863333N / 094-59.935000W
44.2310556 / -94.9989167
(estimated)
Elevation: 1073 ft. / 327.1 m (surveyed)
Variation: 02E (2015)
From city: 1 mile SW of SPRINGFIELD, MN
Time zone: UTC -5 (UTC -6 during Standard Time)
Zip code: 56087

Airport Operations

Airport use: Open to the public
Control tower: no
ARTCC: MINNEAPOLIS CENTER
FSS: PRINCETON FLIGHT SERVICE STATION
NOTAMs facility: PNM (NOTAM-D service available)
Attendance: UNATNDD
FOR SVC CALL 507-723-3500.
Wind indicator: lighted
Segmented circle: no
Lights: MIRL SS-SR, ACTVT MIRL RWY 13/31, REIL RWY 13/31, AND PAPI RWY 13/31 - CTAF.
Beacon: white-green (lighted land airport)
Operates sunset to sunrise.

Airport Communications

CTAF/UNICOM: 122.8
WX ASOS at RWF (19 nm N): 126.575 (507-644-3564)
WX AWOS-3 at MWM (20 nm S): 118.525 (507-831-1833)
  • APCH/DEP SVC PRVDD BY MINNEAPOLIS ARTCC ON FREQS 127.1/290.2 (REDWOOD FALLS RCAG).

Nearby radio navigation aids

VOR radial/distance  VOR name  Freq  Var
RWFr152/15.2REDWOOD FALLS VOR/DME113.3007E
MMLr105/37.8MARSHALL VOR/DME111.0005E

 
NDB name  Hdg/Dist  Freq  Var  ID
ST JAMES306/24.226001EJYG .--- -.-- --.

Airport Services

Fuel available: 100LL
SELF SERVE FUEL AVBL WITH CREDIT CARD 24 HRS.
Parking: hangars and tiedowns
Airframe service: NONE
Powerplant service: NONE
Bottled oxygen: NONE
Bulk oxygen: NONE

Runway Information

Runway 13/31

Dimensions: 3402 x 75 ft. / 1037 x 23 m
Surface: asphalt, in good condition
Weight bearing capacity: 
Single wheel: 12.0
Runway edge lights: medium intensity
NO CAUTION ZONE LIGHTING PRESENT FOR LAST HALF OF RWY IN BOTH DIRECTIONS
RUNWAY 13  RUNWAY 31
Latitude: 44-14.050798N44-13.676655N
Longitude: 095-00.225210W094-59.645990W
Elevation: 1070.5 ft.1067.4 ft.
Gradient: 0.2%0.2%
Traffic pattern: rightleft
Runway heading: 130 magnetic, 132 true310 magnetic, 312 true
Markings: nonprecision, in good conditionnonprecision, in good condition
Visual slope indicator: 2-light PAPI on left (3.00 degrees glide path)2-light PAPI on left (3.00 degrees glide path)
Runway end identifier lights: yesyes
Touchdown point: yes, no lightsyes, no lights
Obstructions: none16 ft. tree, 527 ft. from runway, 71 ft. right of centerline, 20:1 slope to clear

Airport Ownership and Management from official FAA records

Ownership: Publicly-owned
Owner: CITY OF SPRINGFIELD
2 E CENTRAL ST
SPRINGFIELD, MN 56087
Phone 507-723-3500
Manager: MATT SKARET
2 E CENTRAL ST
SPRINGFIELD, MN 56087
Phone 507-723-3500

Airport Operational Statistics

Aircraft based on the field: 3
Single engine airplanes: 3
    
Aircraft operations: avg 46/week *
83% local general aviation
17% transient general aviation
* for 12-month period ending 30 April 2017

Additional Remarks

ULTRALIGHT TRAFFIC ON & INVOF ARPT.

Instrument Procedures

NOTE: All procedures below are presented as PDF files. If you need a reader for these files, you should download the free Adobe Reader.

NOT FOR NAVIGATION. Please procure official charts for flight.
FAA instrument procedures published for use from 13 September 2018 at 0901Z to 11 October 2018 at 0900Z.

 
IAPs - Instrument Approach Procedures
RNAV (GPS) RWY 13   download (188KB)
RNAV (GPS) RWY 31   download (169KB)
VOR/DME RWY 13   download (161KB)
NOTE: Special Take-Off Minimums/Departure Procedures apply   download (152KB)

Other nearby airports with instrument procedures:

KRWF - Redwood Falls Municipal Airport (19 nm N)
KMWM - Windom Municipal Airport (20 nm S)
KULM - New Ulm Municipal Airport (22 nm E)
KJYG - St James Municipal Airport (24 nm SE)
KTKC - Tracy Municipal Airport (26 nm W)
 
Loc | Ops | Rwys | IFR | FBO | Links
Com | Nav | Svcs | Stats | Notes


 
Area around D42 (Springfield Municipal Airport)
 
Road maps at: MapQuest Bing Google
 
Aerial photo
WARNING: Photo may not be current or correct
Aerial photo of D42 (Springfield Municipal Airport)
Photo by Mark Griffith
Photo taken 14-Jul-2011
at 3000 feet from a Piper Archer II. Looking north.

Do you have a better or more recent aerial photo of Springfield Municipal Airport that you would like to share? If so, please send us your photo.

 
Sectional chart

 
Airport distance calculator
Flying to Springfield Municipal Airport? Find the distance to fly.

From to D42

Sunrise and sunset
Times for 25-Sep-2018
 Local
(UTC-5)
 Zulu
(UTC)
Morning civil twilight06:4311:43
Sunrise07:1212:12
Sunset19:1200:12
Evening civil twilight19:4100:41

Current date and time
Zulu (UTC)  25-Sep-2018 16:09:18
Local (UTC-5)  25-Sep-2018 11:09:18
 
METAR
KRWF 
19nm N 
251553Z AUTO 31005KT 10SM OVC080 09/08 A3000 RMK AO2 RAE40 SLP162 P0000 T00890083
KMWM 
20nm S 
251555Z AUTO 34007KT 10SM -RA BKN007 OVC012 09/08 A2997 RMK AO2 P0004 P0004
KULM 
22nm E 
251455Z AUTO 36004KT 10SM -RA SCT060 BKN070 OVC080 09/08 A2997 RMK AO
KJYG 
24nm SE 
251555Z AUTO 31004KT 4SM RA SCT008 OVC013 10/09 A2999 RMK AO2
KTKC 
26nm W 
251559Z AUTO 33006KT 10SM -RA SCT006 BKN011 OVC016 10/09 A3001 RMK AO2 LTG DSNT E P0001
KOVL 
33nm N 
251555Z AUTO 33008KT 10SM SCT075 OVC090 10/08 A2998 RMK AO2
KMJQ 
36nm S 
251555Z 02006KT 7SM OVC007 09/08 A2996 RMK AO2 P0001 PWINO
KDVP 
37nm SW 
251459Z AUTO 34003KT 10SM -RA BKN008 BKN029 OVC043 08/07 A3000 RMK AO2 P0001
KMML 
37nm W 
251556Z AUTO 33006KT 10SM -RA FEW010 BKN014 OVC044 09/08 A3001 RMK AO2 SLP171 P0002 T00940083
TAF
KRWF 
19nm N 
251121Z 2512/2612 33007KT P6SM SCT008 OVC015 FM251400 32008KT 6SM -RA BR OVC015 FM251900 30010G18KT P6SM VCSH OVC035 FM252300 29007KT P6SM BKN050 FM260600 28012KT P6SM SCT100
NOTAMs
Click for the latest NOTAMs
NOTAMs are issued by the DoD/FAA and will open in a separate window not controlled by AirNav.

 

 
 

FBO, Fuel Providers, and Aircraft Ground Support

  
 Business Name 
 
 Contact 
 
 Services / Description 
 
Fuel Prices
 
Comments
  
Springfield Municipal Airport 507-723-3512
no information available

If you are affiliated with Springfield Municipal Airport and would like to show here your services, contact info, web link, logo, and more, click here
100LL
SS $4.21 
 Updated 17-Nov-2015
 
   write
SS=Self service
Update Fuel Prices
 

Would you like to see your business listed on this page?

 If your business provides an interesting product or service to pilots, flight crews, aircraft, or users of the Springfield Municipal Airport, you should consider listing it here.  To start the listing process, click on the button below
 
Add a business
 

Other Pages about Springfield Municipal Airport

Update a link
 
Copyright © AirNav, LLC. All rights reserved. Privacy Policy  Contact